createdAt,value
2023-02-28T00:00:17.858Z,20.23
2023-02-28T00:02:44.609Z,20.23
2023-02-28T00:05:11.719Z,20.19
2023-02-28T00:07:38.285Z,20.24
2023-02-28T00:10:05.578Z,20.19
2023-02-28T00:12:32.060Z,20.22
2023-02-28T00:14:58.460Z,20.18
2023-02-28T00:17:24.897Z,20.18
2023-02-28T00:19:51.479Z,20.21
2023-02-28T00:22:18.436Z,20.21
2023-02-28T00:24:45.107Z,20.21
2023-02-28T00:27:11.599Z,20.25
2023-02-28T00:29:38.255Z,20.29
2023-02-28T00:32:05.138Z,20.24
2023-02-28T00:34:31.567Z,20.29
2023-02-28T00:36:57.979Z,20.29
2023-02-28T00:39:24.427Z,20.28
2023-02-28T00:41:50.882Z,20.22
2023-02-28T00:44:17.341Z,20.30
2023-02-28T00:46:43.811Z,20.30
2023-02-28T00:49:10.235Z,20.30
2023-02-28T00:51:36.741Z,20.29
2023-02-28T00:54:03.187Z,20.33
2023-02-28T00:56:29.618Z,20.31
2023-02-28T00:58:56.003Z,20.34
2023-02-28T01:01:22.412Z,20.36
2023-02-28T01:03:48.831Z,20.38
2023-02-28T01:06:15.706Z,20.36
2023-02-28T01:08:42.695Z,20.37
2023-02-28T01:11:12.344Z,20.36
2023-02-28T01:13:40.372Z,20.38
2023-02-28T01:16:07.123Z,20.40
2023-02-28T01:18:33.511Z,20.41
2023-02-28T01:21:03.905Z,20.36
2023-02-28T01:23:30.284Z,20.36
2023-02-28T01:25:56.698Z,20.42
2023-02-28T01:28:23.141Z,20.39
2023-02-28T01:30:50.236Z,20.40
2023-02-28T01:33:16.752Z,20.41
2023-02-28T01:35:43.238Z,20.42
2023-02-28T01:38:21.212Z,20.42
2023-02-28T01:40:48.439Z,20.40
2023-02-28T01:43:20.379Z,20.46
2023-02-28T01:45:46.797Z,20.42
2023-02-28T01:48:13.770Z,20.41
2023-02-28T01:50:41.559Z,20.48
2023-02-28T01:53:08.353Z,20.46
2023-02-28T01:55:34.782Z,20.45
2023-02-28T01:58:01.625Z,20.44
2023-02-28T02:00:28.040Z,20.49
2023-02-28T02:02:55.299Z,20.48
2023-02-28T02:05:22.682Z,20.47
2023-02-28T02:07:50.198Z,20.48
2023-02-28T02:10:17.030Z,20.49
2023-02-28T02:12:49.555Z,20.48
2023-02-28T02:15:36.294Z,20.48
2023-02-28T02:18:05.771Z,20.47
2023-02-28T02:20:32.172Z,20.41
2023-02-28T02:23:13.885Z,20.42
2023-02-28T02:25:44.056Z,20.40
2023-02-28T02:28:13.799Z,20.42
2023-02-28T02:30:43.246Z,20.46
2023-02-28T02:33:15.970Z,20.37
2023-02-28T02:35:50.711Z,20.38
2023-02-28T02:38:23.100Z,20.40
2023-02-28T02:41:01.886Z,20.38
2023-02-28T02:43:34.149Z,20.35
2023-02-28T02:46:01.170Z,20.33
2023-02-28T02:48:28.478Z,20.41
2023-02-28T02:50:58.927Z,20.38
2023-02-28T02:53:26.874Z,20.41
2023-02-28T02:55:55.385Z,20.44
2023-02-28T02:58:24.433Z,20.46
2023-02-28T03:00:55.318Z,20.50
2023-02-28T03:03:30.032Z,20.53
2023-02-28T03:05:57.193Z,20.49
2023-02-28T03:08:23.770Z,20.55
2023-02-28T03:10:51.155Z,20.59
2023-02-28T03:13:29.770Z,20.54
2023-02-28T03:16:15.200Z,20.61
2023-02-28T03:18:43.691Z,20.66
2023-02-28T03:21:28.787Z,20.83
2023-02-28T03:24:05.238Z,20.84
2023-02-28T03:26:31.677Z,20.88
2023-02-28T03:29:06.475Z,21.00
2023-02-28T03:31:42.627Z,21.01
2023-02-28T03:34:17.614Z,21.07
2023-02-28T03:36:46.489Z,21.15
2023-02-28T03:39:17.281Z,21.19
2023-02-28T03:41:47.448Z,21.20
2023-02-28T03:44:17.414Z,21.06
2023-02-28T03:46:46.220Z,21.03
2023-02-28T03:49:15.136Z,20.92
2023-02-28T03:51:41.733Z,21.01
2023-02-28T03:54:13.525Z,20.92
2023-02-28T03:56:40.688Z,20.85
2023-02-28T03:59:19.140Z,20.78
2023-02-28T04:01:46.325Z,20.65
2023-02-28T04:04:12.852Z,20.47
2023-02-28T04:06:39.472Z,20.29
2023-02-28T04:09:06.051Z,20.12
2023-02-28T04:11:39.709Z,19.93
2023-02-28T04:14:06.396Z,19.76
2023-02-28T04:16:35.706Z,19.60
2023-02-28T04:19:03.879Z,19.50
2023-02-28T04:21:30.767Z,19.40
2023-02-28T04:24:01.567Z,19.39
2023-02-28T04:26:34.681Z,19.29
2023-02-28T04:29:01.216Z,19.23
2023-02-28T04:31:28.030Z,19.19
2023-02-28T04:33:54.792Z,19.13
2023-02-28T04:36:21.348Z,19.11
2023-02-28T04:38:47.817Z,19.12
2023-02-28T04:41:14.284Z,19.13
2023-02-28T04:43:40.739Z,19.16
2023-02-28T04:46:07.221Z,19.22
2023-02-28T04:48:34.520Z,19.27
2023-02-28T04:51:06.948Z,19.32
2023-02-28T04:53:33.404Z,19.34
2023-02-28T04:55:59.873Z,19.38
2023-02-28T04:58:26.374Z,19.44
2023-02-28T05:00:53.295Z,19.50
2023-02-28T05:03:20.091Z,19.50
2023-02-28T05:05:46.460Z,19.52
2023-02-28T05:08:12.943Z,19.55
2023-02-28T05:10:39.427Z,19.52
2023-02-28T05:13:05.825Z,19.49
2023-02-28T05:15:34.058Z,19.37
2023-02-28T05:18:01.802Z,19.45
2023-02-28T05:20:28.340Z,19.40
2023-02-28T05:22:54.849Z,19.62
2023-02-28T05:25:22.525Z,19.64
2023-02-28T05:27:49.050Z,19.62
2023-02-28T05:30:16.315Z,19.69
2023-02-28T05:32:43.895Z,19.70
2023-02-28T05:35:13.130Z,19.74
2023-02-28T05:37:39.676Z,19.82
2023-02-28T05:40:11.384Z,19.92
2023-02-28T05:42:38.339Z,19.89
2023-02-28T05:45:05.376Z,35.82
2023-02-28T05:47:33.881Z,30.66
2023-02-28T05:50:01.096Z,24.17
2023-02-28T05:52:27.746Z,21.60
2023-02-28T05:54:54.168Z,21.06
2023-02-28T05:57:24.740Z,20.91
2023-02-28T05:59:51.479Z,20.79
2023-02-28T06:02:18.096Z,20.83
2023-02-28T06:04:44.570Z,21.02
2023-02-28T06:07:11.068Z,21.72
2023-02-28T06:09:37.655Z,21.73
2023-02-28T06:12:06.416Z,23.84
2023-02-28T06:14:33.127Z,25.76
2023-02-28T06:17:00.016Z,23.46
2023-02-28T06:19:26.644Z,22.36
2023-02-28T06:21:53.691Z,21.82
2023-02-28T06:24:20.749Z,21.05
2023-02-28T06:26:47.163Z,20.69
2023-02-28T06:29:14.136Z,20.60
2023-02-28T06:31:41.032Z,21.25
2023-02-28T06:34:07.538Z,20.96
2023-02-28T06:36:33.973Z,20.62
2023-02-28T06:39:00.456Z,19.73
2023-02-28T06:41:27.119Z,19.75
2023-02-28T06:43:53.720Z,19.91
2023-02-28T06:46:20.200Z,19.85
2023-02-28T06:48:46.883Z,19.81
2023-02-28T06:51:23.543Z,20.01
2023-02-28T06:53:50.087Z,20.94
2023-02-28T06:56:16.780Z,21.26
2023-02-28T06:58:43.184Z,21.09
2023-02-28T07:01:09.661Z,20.93
2023-02-28T07:03:36.519Z,20.92
2023-02-28T07:06:03.729Z,20.86
2023-02-28T07:08:30.134Z,20.91
2023-02-28T07:10:56.855Z,20.89
2023-02-28T07:13:23.751Z,20.83
2023-02-28T07:16:11.816Z,20.79
2023-02-28T07:18:38.427Z,20.79
2023-02-28T07:21:08.837Z,20.71
2023-02-28T07:23:35.308Z,20.76
2023-02-28T07:26:01.753Z,20.73
2023-02-28T07:28:28.190Z,20.86
2023-02-28T07:30:54.712Z,20.70
2023-02-28T07:33:21.170Z,20.68
2023-02-28T07:35:47.613Z,20.68
2023-02-28T07:38:14.935Z,20.51
2023-02-28T07:40:41.479Z,20.52
2023-02-28T07:43:10.238Z,20.37
2023-02-28T07:45:36.759Z,20.51
2023-02-28T07:48:03.294Z,20.39
2023-02-28T07:50:32.803Z,20.61
2023-02-28T07:52:59.560Z,20.46
2023-02-28T07:55:25.998Z,20.49
2023-02-28T07:57:52.438Z,20.46
2023-02-28T08:00:19.327Z,20.74
2023-02-28T08:02:45.816Z,20.91
2023-02-28T08:05:12.517Z,20.96
2023-02-28T08:07:38.979Z,21.52
2023-02-28T08:10:06.673Z,21.56
2023-02-28T08:12:33.092Z,21.31
2023-02-28T08:14:59.567Z,21.15
2023-02-28T08:17:29.044Z,21.10
2023-02-28T08:19:55.597Z,21.05
2023-02-28T08:22:22.023Z,20.96
2023-02-28T08:24:48.695Z,20.95
2023-02-28T08:27:15.185Z,21.24
2023-02-28T08:29:41.833Z,21.03
2023-02-28T08:32:17.491Z,21.38
2023-02-28T08:34:47.985Z,21.10
2023-02-28T08:37:14.682Z,21.28
2023-02-28T08:39:41.129Z,21.33
2023-02-28T08:42:08.202Z,21.26
2023-02-28T08:44:34.760Z,21.37
2023-02-28T08:47:02.192Z,21.52
2023-02-28T08:49:29.661Z,21.67
2023-02-28T08:51:58.349Z,21.75
2023-02-28T08:54:25.055Z,21.85
2023-02-28T08:56:51.626Z,21.97
2023-02-28T08:59:18.033Z,22.17
2023-02-28T09:01:47.239Z,22.37
2023-02-28T09:04:15.795Z,22.65
2023-02-28T09:06:45.889Z,22.38
2023-02-28T09:09:12.314Z,22.71
2023-02-28T09:11:38.780Z,22.67
2023-02-28T09:14:05.511Z,22.35
2023-02-28T09:16:32.968Z,22.28
2023-02-28T09:19:00.029Z,22.67
2023-02-28T09:21:26.661Z,22.55
2023-02-28T09:23:53.569Z,22.63
2023-02-28T09:26:23.380Z,22.62
2023-02-28T09:28:49.900Z,20.36
2023-02-28T09:31:22.055Z,19.99
2023-02-28T09:33:49.493Z,21.81
2023-02-28T09:36:16.058Z,22.52
2023-02-28T09:38:43.687Z,22.73
2023-02-28T09:41:14.913Z,22.86
2023-02-28T09:43:42.248Z,22.73
2023-02-28T09:46:08.724Z,22.76
2023-02-28T09:48:38.028Z,22.55
2023-02-28T09:51:24.779Z,22.69
2023-02-28T09:53:56.741Z,22.89
2023-02-28T09:56:33.610Z,23.05
2023-02-28T09:59:01.848Z,23.50
2023-02-28T10:01:46.987Z,23.59
2023-02-28T10:04:18.014Z,23.16
2023-02-28T10:06:48.161Z,23.22
2023-02-28T10:09:16.804Z,23.36
2023-02-28T10:11:43.889Z,23.18
2023-02-28T10:14:17.196Z,23.05
2023-02-28T10:16:53.094Z,23.15
2023-02-28T10:19:28.741Z,23.51
2023-02-28T10:21:59.049Z,23.54
2023-02-28T10:24:33.765Z,23.35
2023-02-28T10:27:03.047Z,23.48
2023-02-28T10:29:30.880Z,23.43
2023-02-28T10:31:57.357Z,23.33
2023-02-28T10:34:24.237Z,23.42
2023-02-28T10:36:50.743Z,23.52
2023-02-28T10:39:36.457Z,23.51
2023-02-28T10:42:03.234Z,23.11
2023-02-28T10:44:29.667Z,23.24
2023-02-28T10:46:56.088Z,23.34
2023-02-28T10:49:26.730Z,23.11
2023-02-28T10:51:54.429Z,23.28
2023-02-28T10:54:23.299Z,23.38
2023-02-28T10:57:08.527Z,23.42
2023-02-28T10:59:35.027Z,23.47
2023-02-28T11:02:01.533Z,23.50
2023-02-28T11:04:30.837Z,23.55
2023-02-28T11:07:00.840Z,23.55
2023-02-28T11:09:27.218Z,23.72
2023-02-28T11:11:53.997Z,23.90
2023-02-28T11:14:25.249Z,24.01
2023-02-28T11:16:51.843Z,23.90
2023-02-28T11:19:22.133Z,23.88
2023-02-28T11:21:53.225Z,23.94
2023-02-28T11:24:27.473Z,23.88
2023-02-28T11:26:53.921Z,25.03
2023-02-28T11:29:27.363Z,25.07
2023-02-28T11:32:04.546Z,24.69
2023-02-28T11:34:31.106Z,24.58
2023-02-28T11:36:58.129Z,24.69
2023-02-28T11:39:24.599Z,24.58
2023-02-28T11:42:10.765Z,24.44
2023-02-28T11:44:52.470Z,24.54
2023-02-28T11:47:34.684Z,24.57
2023-02-28T11:50:01.237Z,24.50
2023-02-28T11:52:39.005Z,24.52
2023-02-28T11:55:41.112Z,24.75
2023-02-28T11:58:26.306Z,24.72
2023-02-28T12:01:11.344Z,24.74
2023-02-28T12:03:56.734Z,24.38
2023-02-28T12:06:41.291Z,24.70
2023-02-28T12:09:17.075Z,24.59
2023-02-28T12:12:01.564Z,24.75
2023-02-28T12:14:27.965Z,24.57
2023-02-28T12:16:59.938Z,24.29
2023-02-28T12:19:47.007Z,24.49
2023-02-28T12:22:42.908Z,24.27
2023-02-28T12:25:23.281Z,24.44
2023-02-28T12:27:50.213Z,24.41
2023-02-28T12:30:16.628Z,24.38
2023-02-28T12:32:44.225Z,24.42
2023-02-28T12:35:10.678Z,24.50
2023-02-28T12:37:48.079Z,24.49
2023-02-28T12:40:16.397Z,24.54
2023-02-28T12:42:47.348Z,24.63
2023-02-28T12:45:16.338Z,24.50
2023-02-28T12:47:43.409Z,24.69
2023-02-28T12:50:12.519Z,24.16
2023-02-28T12:52:54.415Z,24.37
2023-02-28T12:55:26.923Z,24.45
2023-02-28T12:57:57.973Z,24.17
2023-02-28T13:00:26.121Z,24.24
2023-02-28T13:03:15.243Z,24.31
2023-02-28T13:05:47.600Z,24.25
2023-02-28T13:08:16.837Z,24.32
2023-02-28T13:10:46.982Z,24.31
2023-02-28T13:13:20.710Z,24.12
2023-02-28T13:16:02.787Z,24.15
2023-02-28T13:18:40.540Z,24.16
2023-02-28T13:21:07.695Z,24.12
2023-02-28T13:23:38.441Z,24.06
2023-02-28T13:26:05.301Z,24.15
2023-02-28T13:28:50.317Z,24.20
2023-02-28T13:31:18.198Z,24.29
2023-02-28T13:33:49.088Z,24.22
2023-02-28T13:36:24.902Z,24.24
2023-02-28T13:39:02.796Z,24.17
2023-02-28T13:41:32.717Z,24.17
2023-02-28T13:44:03.037Z,24.32
2023-02-28T13:46:29.523Z,24.28
2023-02-28T13:48:56.034Z,24.22
2023-02-28T13:51:42.866Z,24.22
2023-02-28T13:54:15.078Z,24.20
2023-02-28T13:56:44.530Z,24.22
2023-02-28T13:59:17.556Z,24.28
2023-02-28T14:01:44.183Z,24.16
2023-02-28T14:04:23.900Z,24.25
2023-02-28T14:06:54.399Z,24.33
2023-02-28T14:09:31.619Z,24.21
2023-02-28T14:11:58.718Z,24.30
2023-02-28T14:14:37.115Z,24.26
2023-02-28T14:17:04.236Z,24.30
2023-02-28T14:19:31.436Z,24.34
2023-02-28T14:21:57.803Z,24.29
2023-02-28T14:24:36.462Z,24.24
2023-02-28T14:27:21.845Z,24.21
2023-02-28T14:29:51.396Z,24.25
2023-02-28T14:32:17.805Z,24.27
2023-02-28T14:34:46.990Z,24.32
2023-02-28T14:37:17.673Z,24.33
2023-02-28T14:39:44.823Z,24.32
2023-02-28T14:42:30.645Z,24.24
2023-02-28T14:45:00.120Z,24.18
2023-02-28T14:47:28.610Z,24.11
2023-02-28T14:49:55.536Z,24.04
2023-02-28T14:52:23.186Z,24.03
2023-02-28T14:54:53.332Z,24.21
2023-02-28T14:57:24.218Z,24.17
2023-02-28T15:00:11.925Z,24.08
2023-02-28T15:02:38.620Z,24.00
2023-02-28T15:05:11.127Z,23.96
2023-02-28T15:07:37.724Z,23.92
2023-02-28T15:10:22.926Z,23.95
2023-02-28T15:12:59.224Z,23.85
2023-02-28T15:16:01.225Z,23.89
2023-02-28T15:18:33.107Z,23.84
2023-02-28T15:21:00.119Z,23.84
2023-02-28T15:23:26.529Z,23.83
2023-02-28T15:25:52.983Z,23.82
2023-02-28T15:28:20.312Z,23.77
2023-02-28T15:30:57.094Z,23.79
2023-02-28T15:33:24.565Z,23.76
2023-02-28T15:35:51.219Z,23.75
2023-02-28T15:38:24.405Z,23.72
2023-02-28T15:40:58.434Z,23.77
2023-02-28T15:43:28.747Z,23.77
2023-02-28T15:46:01.664Z,23.73
2023-02-28T15:48:28.080Z,23.69
2023-02-28T15:50:55.188Z,23.76
2023-02-28T15:53:25.973Z,23.82
2023-02-28T15:56:02.308Z,23.73
2023-02-28T15:58:28.785Z,23.76
2023-02-28T16:01:02.282Z,23.79
2023-02-28T16:03:29.241Z,23.72
2023-02-28T16:06:15.869Z,23.76
2023-02-28T16:08:42.295Z,23.81
2023-02-28T16:11:11.723Z,23.77
2023-02-28T16:13:38.207Z,23.77
2023-02-28T16:16:04.763Z,23.77
2023-02-28T16:18:31.193Z,23.78
2023-02-28T16:20:57.600Z,23.80
2023-02-28T16:23:24.015Z,23.77
2023-02-28T16:25:50.628Z,23.78
2023-02-28T16:28:19.429Z,23.79
2023-02-28T16:30:45.859Z,23.80
2023-02-28T16:33:12.274Z,23.83
2023-02-28T16:35:38.787Z,23.81
2023-02-28T16:38:05.314Z,23.77
2023-02-28T16:40:34.136Z,23.81
2023-02-28T16:43:00.759Z,23.80
2023-02-28T16:45:27.810Z,23.82
2023-02-28T16:47:54.361Z,23.85
2023-02-28T16:50:21.758Z,23.84
2023-02-28T16:52:48.995Z,23.89
2023-02-28T16:55:15.508Z,23.85
2023-02-28T16:57:44.267Z,23.88
2023-02-28T17:00:12.276Z,23.93
2023-02-28T17:02:41.301Z,23.85
2023-02-28T17:05:12.315Z,23.86
2023-02-28T17:07:39.023Z,23.85
2023-02-28T17:10:11.531Z,23.91
2023-02-28T17:12:37.956Z,23.87
2023-02-28T17:15:04.580Z,23.86
2023-02-28T17:17:31.936Z,23.89
2023-02-28T17:19:58.360Z,23.92
2023-02-28T17:22:26.895Z,23.97
2023-02-28T17:24:56.581Z,23.90
2023-02-28T17:27:22.996Z,23.98
2023-02-28T17:29:49.603Z,23.95
2023-02-28T17:32:18.192Z,23.96
2023-02-28T17:34:46.905Z,24.01
2023-02-28T17:37:13.509Z,24.04
2023-02-28T17:39:39.937Z,24.06
2023-02-28T17:42:06.449Z,24.04
2023-02-28T17:44:33.397Z,24.04
2023-02-28T17:47:00.003Z,24.07
2023-02-28T17:49:26.499Z,24.13
2023-02-28T17:51:52.938Z,24.10
2023-02-28T17:54:19.533Z,24.17
2023-02-28T17:56:47.090Z,24.13
2023-02-28T17:59:13.573Z,24.14
2023-02-28T18:01:40.089Z,24.15
2023-02-28T18:04:06.552Z,24.11
2023-02-28T18:06:37.270Z,24.07
2023-02-28T18:09:03.678Z,24.00
2023-02-28T18:11:42.501Z,24.04
2023-02-28T18:14:09.079Z,24.07
2023-02-28T18:16:35.608Z,24.05
2023-02-28T18:19:04.751Z,24.12
2023-02-28T18:21:31.456Z,24.08
2023-02-28T18:23:58.115Z,24.12
2023-02-28T18:26:24.540Z,24.12
2023-02-28T18:28:50.945Z,24.07
2023-02-28T18:31:20.743Z,24.09
2023-02-28T18:33:50.623Z,24.07
2023-02-28T18:36:17.166Z,24.13
2023-02-28T18:38:44.158Z,24.11
2023-02-28T18:41:10.694Z,24.14
2023-02-28T18:43:38.474Z,24.17
2023-02-28T18:46:08.854Z,24.11
2023-02-28T18:48:35.678Z,24.15
2023-02-28T18:51:12.118Z,24.15
2023-02-28T18:53:38.827Z,24.10
2023-02-28T18:56:05.509Z,24.13
2023-02-28T18:58:33.530Z,24.15
2023-02-28T19:01:00.491Z,24.18
2023-02-28T19:03:27.161Z,24.16
2023-02-28T19:05:57.049Z,24.08
2023-02-28T19:08:23.871Z,24.14
2023-02-28T19:10:50.306Z,24.12
2023-02-28T19:13:16.808Z,24.13
2023-02-28T19:15:43.234Z,24.11
2023-02-28T19:18:09.697Z,24.12
2023-02-28T19:20:36.267Z,24.17
2023-02-28T19:23:02.992Z,24.15
2023-02-28T19:25:29.418Z,24.12
2023-02-28T19:27:56.682Z,24.12
2023-02-28T19:30:23.276Z,24.15
2023-02-28T19:32:49.864Z,24.12
2023-02-28T19:35:16.277Z,24.14
2023-02-28T19:37:42.739Z,24.12
2023-02-28T19:40:09.620Z,24.13
2023-02-28T19:42:36.213Z,24.14
2023-02-28T19:45:02.882Z,24.14
2023-02-28T19:47:30.730Z,24.15
2023-02-28T19:49:57.435Z,24.13
2023-02-28T19:52:24.033Z,24.16
2023-02-28T19:54:50.667Z,24.15
2023-02-28T19:57:17.077Z,24.16
2023-02-28T19:59:43.713Z,24.20
2023-02-28T20:02:13.773Z,24.16
2023-02-28T20:04:40.366Z,24.16
2023-02-28T20:07:06.833Z,24.19
2023-02-28T20:09:33.222Z,24.21
2023-02-28T20:11:59.765Z,24.20
2023-02-28T20:14:26.486Z,24.13
2023-02-28T20:16:52.978Z,24.13
2023-02-28T20:19:19.421Z,24.14
2023-02-28T20:21:45.857Z,24.18
2023-02-28T20:24:12.292Z,24.17
2023-02-28T20:26:39.389Z,24.21
2023-02-28T20:29:06.217Z,24.25
2023-02-28T20:31:32.773Z,24.29
2023-02-28T20:33:59.229Z,24.35
2023-02-28T20:36:25.864Z,24.31
2023-02-28T20:38:52.807Z,24.36
2023-02-28T20:41:19.293Z,24.38
2023-02-28T20:43:45.941Z,24.34
2023-02-28T20:46:12.460Z,24.42
2023-02-28T20:48:39.144Z,24.36
2023-02-28T20:51:05.760Z,24.37
2023-02-28T20:53:32.428Z,24.38
2023-02-28T20:56:11.245Z,24.40
2023-02-28T20:58:37.730Z,24.45
2023-02-28T21:01:05.044Z,24.46
2023-02-28T21:03:31.506Z,24.47
2023-02-28T21:06:01.594Z,24.47
2023-02-28T21:08:28.012Z,24.47
2023-02-28T21:10:54.406Z,24.45
2023-02-28T21:13:20.990Z,24.48
2023-02-28T21:15:47.704Z,24.50
2023-02-28T21:18:15.607Z,24.53
2023-02-28T21:20:42.058Z,24.50
2023-02-28T21:23:08.512Z,24.47
2023-02-28T21:25:34.921Z,24.54
2023-02-28T21:28:01.427Z,24.44
2023-02-28T21:30:27.904Z,24.44
2023-02-28T21:32:54.317Z,24.41
2023-02-28T21:35:20.802Z,24.38
2023-02-28T21:37:47.241Z,24.40
2023-02-28T21:40:13.761Z,24.31
2023-02-28T21:42:40.228Z,24.28
2023-02-28T21:45:07.051Z,24.27
2023-02-28T21:47:33.534Z,24.25
2023-02-28T21:50:00.114Z,24.24
2023-02-28T21:52:26.648Z,24.27
2023-02-28T21:54:53.153Z,24.22
2023-02-28T21:57:19.640Z,24.20
2023-02-28T21:59:46.292Z,24.17
2023-02-28T22:02:12.802Z,24.13
2023-02-28T22:04:39.255Z,24.15
2023-02-28T22:07:05.627Z,24.12
2023-02-28T22:09:32.059Z,24.21
2023-02-28T22:11:58.531Z,24.18
2023-02-28T22:14:25.065Z,24.13
2023-02-28T22:16:54.152Z,24.09
2023-02-28T22:19:21.589Z,24.02
2023-02-28T22:21:48.236Z,23.98
2023-02-28T22:24:15.510Z,23.94
2023-02-28T22:26:42.008Z,23.97
2023-02-28T22:29:08.526Z,23.91
2023-02-28T22:31:35.717Z,23.88
2023-02-28T22:34:03.142Z,23.84
2023-02-28T22:36:30.279Z,23.90
2023-02-28T22:38:58.121Z,23.81
2023-02-28T22:41:24.599Z,23.83
2023-02-28T22:43:57.618Z,23.76
2023-02-28T22:46:24.384Z,23.80
2023-02-28T22:48:51.086Z,23.77
2023-02-28T22:51:18.352Z,23.70
2023-02-28T22:53:45.193Z,23.70
2023-02-28T22:56:11.948Z,23.71
2023-02-28T22:58:38.341Z,23.65
2023-02-28T23:01:08.189Z,23.64
2023-02-28T23:03:34.742Z,23.63
2023-02-28T23:06:01.272Z,23.62
2023-02-28T23:08:27.708Z,23.65
2023-02-28T23:10:54.166Z,23.61
2023-02-28T23:13:20.633Z,23.61
2023-02-28T23:15:47.094Z,23.62
2023-02-28T23:18:13.601Z,23.60
2023-02-28T23:20:40.182Z,23.57
2023-02-28T23:23:06.654Z,23.56
2023-02-28T23:25:33.550Z,23.61
2023-02-28T23:27:59.979Z,23.58
2023-02-28T23:30:26.421Z,23.60
2023-02-28T23:32:52.811Z,23.61
2023-02-28T23:35:19.383Z,23.61
2023-02-28T23:37:45.843Z,23.61
2023-02-28T23:40:13.072Z,23.61
2023-02-28T23:42:39.541Z,23.60
2023-02-28T23:45:06.666Z,23.63
2023-02-28T23:47:33.204Z,23.62
2023-02-28T23:49:59.607Z,23.64
2023-02-28T23:52:26.124Z,23.63
2023-02-28T23:54:52.648Z,23.67
2023-02-28T23:57:19.046Z,23.71
2023-02-28T23:59:45.653Z,23.70
